KDKK

Chautauqua County / Dunkirk Airport

Dunkirk, New York, USA
METAR KDKK 201853Z AUTO 27007G18KT 4SM RA BR OVC031 07/05 A2965 RMK AO2 LTG DSNT W TSE1755B14E29 SLP044 P0008 T00720050
Observed Flight Rules
Oct-20 @ 18:53 UTC (41 minutes ago) Marginal Visual Flight Rules
Wind Visibility Clouds Conditions
270° at 7 knots
 Gusting to 18 knots
4 miles
  • Overcast at 3,100' AGL
  • Rain
  • Mist
Temperatures Readings Precipitation
Current 7°C / 45°F
Dewpoint 5°C / 41°F
Humidity 87%
Altimeter 29.65" Hg
Pressure 1004.4 hPa
Elevation 202
Current Rain 0.08
METAR KDKK 201853Z AUTO 27007G18KT 4SM RA BR OVC031 07/05 A2965 RMK AO2 LTG DSNT W TSE1755B14E29 SLP044 P0008 T00720050
Observed Flight Rules
Oct-20 @ 18:53 UTC
(41 minutes ago)
MVFR
Wind Visibility
270° at 7 knots
 Gusting to 18 knots
4 miles
Clouds
  • Overcast at 3,100' AGL
Conditions
  • Rain
  • Mist
Temperature Dewpoint
7°C / 45°F 5°C / 41°F
Humidity Altimeter Pressure
87% 29.65" Hg 1004.4 hPa
Current Rain
0.08